Decoded Metar for UTDK ( in ) (IATA:) | Meteo·Mobile Aviation Weather
aviador You're here:

UTDK Decoded Metar

in
Report Time2019-10-21 06:30:00
UTC Time2019-10-21 07:11:13
Flight Rules vfr VFR
Wind240° at 6 kt
W.Decomp.*RWY 19: 3.9 kt HW 4.6 kt RCW
Visibility9999 m
Phenomena:N/A
Clouds:N/A
Expected CloudBase > 8,000 ft AGL from Temp-Dew spread
CeilingNone
Temp22°C
Dew Point02°C (27% RH)
AAT18.2°C
QNH1023 hPa
Raw Report
METAR UTDK 210630Z 24003MPS 190V310 9999 NSC 22/02 Q1023 R01/09//70
RMK QFE709/0946=

Extra information for UTDK:More info

Social comments